Time;durP1;ratioP1;P1;durP2;ratioP2;P2;SDS_P1;SDS_P2;PMS_P1;PMS_P2;Temp;Humidity;BMP_temperature;BMP_pressure;BME280_temperature;BME280_humidity;BME280_pressure;Samples;Min_cycle;Max_cycle;Signal;HPM_P1;HPM_P2
2022/03/29 00:01:04;;;;;;;25.38;20.10;;;6.90;99.90;;;;;;5031316;28;20551;-83
2022/03/29 00:03:30;;;;;;;25.10;20.02;;;6.90;99.90;;;;;;5045892;28;20535;-83
2022/03/29 00:05:55;;;;;;;28.58;20.63;;;6.90;99.90;;;;;;5047654;28;20041;-83
2022/03/29 00:08:21;;;;;;;26.30;19.67;;;6.80;99.90;;;;;;5046677;28;20037;-84
2022/03/29 00:10:47;;;;;;;25.25;20.25;;;6.80;99.90;;;;;;5038893;28;20033;-83
2022/03/29 00:13:12;;;;;;;26.73;20.33;;;6.80;99.90;;;;;;5051562;28;20067;-83
2022/03/29 00:15:38;;;;;;;27.15;19.58;;;6.80;99.90;;;;;;5039164;28;20452;-83
2022/03/29 00:18:03;;;;;;;26.52;20.20;;;6.70;99.90;;;;;;5048788;28;20041;-84
2022/03/29 00:20:29;;;;;;;27.30;19.98;;;6.70;99.90;;;;;;5051301;28;20095;-83
2022/03/29 00:22:55;;;;;;;24.42;19.48;;;6.80;99.90;;;;;;5028777;28;20053;-83
2022/03/29 00:25:20;;;;;;;24.02;20.27;;;6.90;99.90;;;;;;5052060;28;20041;-83
2022/03/29 00:27:47;;;;;;;26.90;19.73;;;6.90;99.90;;;;;;5052104;28;20037;-83
2022/03/29 00:30:15;;;;;;;26.05;19.58;;;6.90;99.90;;;;;;5052006;28;20052;-83
2022/03/29 00:32:40;;;;;;;23.52;19.00;;;7.00;99.90;;;;;;5047119;28;20041;-83
2022/03/29 00:35:09;;;;;;;24.23;18.75;;;7.00;99.90;;;;;;5047771;28;20052;-84
2022/03/29 00:37:36;;;;;;;23.20;19.15;;;7.10;99.90;;;;;;5051247;28;20048;-83
2022/03/29 00:40:02;;;;;;;33.05;19.88;;;7.10;99.90;;;;;;5046464;28;20487;-83
2022/03/29 00:42:27;;;;;;;25.98;20.08;;;7.10;99.90;;;;;;5051561;28;20041;-83
2022/03/29 00:44:55;;;;;;;23.92;19.10;;;7.10;99.90;;;;;;5046584;28;20049;-83
2022/03/29 00:47:21;;;;;;;24.40;20.05;;;7.10;99.90;;;;;;5038596;28;20116;-83
2022/03/29 00:49:47;;;;;;;24.83;19.00;;;7.10;99.90;;;;;;5052645;28;20079;-83
2022/03/29 00:52:13;;;;;;;25.70;19.45;;;7.20;99.90;;;;;;5035387;28;20052;-83
2022/03/29 00:54:43;;;;;;;26.73;19.75;;;7.20;99.90;;;;;;5021734;28;20446;-83
2022/03/29 00:57:11;;;;;;;25.52;19.45;;;7.20;99.90;;;;;;5044246;28;20087;-84
2022/03/29 00:59:39;;;;;;;28.50;19.88;;;7.10;99.90;;;;;;5042649;28;20555;-84
2022/03/29 01:02:05;;;;;;;25.88;18.75;;;7.20;99.90;;;;;;5045210;28;20045;-83
2022/03/29 01:04:31;;;;;;;28.52;19.90;;;7.20;99.90;;;;;;5049543;28;20072;-83
2022/03/29 01:06:58;;;;;;;25.20;19.60;;;7.20;99.90;;;;;;5047217;28;20498;-84
2022/03/29 01:09:31;;;;;;;30.00;20.00;;;7.20;99.90;;;;;;5034830;28;20116;-83
2022/03/29 01:11:57;;;;;;;22.77;18.77;;;7.20;99.90;;;;;;5042714;28;20033;-83
2022/03/29 01:14:24;;;;;;;26.10;19.23;;;7.20;99.90;;;;;;5067931;28;20049;-84
2022/03/29 01:19:38;;;;;;;28.15;19.83;;;7.20;99.90;;;;;;5054063;28;20049;-84
2022/03/29 01:22:07;;;;;;;27.55;20.08;;;7.20;99.90;;;;;;5046741;28;20058;-83
2022/03/29 01:24:40;;;;;;;27.90;20.15;;;7.20;99.90;;;;;;5054028;28;20393;-83
2022/03/29 01:27:07;;;;;;;26.00;19.02;;;7.20;99.90;;;;;;5055198;28;20036;-83
2022/03/29 01:29:34;;;;;;;30.23;20.88;;;7.10;99.90;;;;;;5042183;28;20117;-83
2022/03/29 01:32:03;;;;;;;32.28;20.20;;;7.10;99.90;;;;;;5023118;28;20034;-84
2022/03/29 01:34:31;;;;;;;29.55;20.33;;;7.20;99.90;;;;;;5042345;28;20479;-84
2022/03/29 01:36:57;;;;;;;27.70;20.65;;;7.10;99.90;;;;;;5054628;28;20490;-84
2022/03/29 01:39:22;;;;;;;27.90;20.00;;;7.10;99.90;;;;;;5046542;28;20044;-84
2022/03/29 01:41:48;;;;;;;29.30;20.10;;;7.00;99.90;;;;;;5051105;28;20044;-84
2022/03/29 01:44:14;;;;;;;27.48;20.38;;;7.00;99.90;;;;;;5035017;28;20037;-84
2022/03/29 01:46:40;;;;;;;27.17;19.48;;;7.00;99.90;;;;;;5048073;28;20111;-84
2022/03/29 01:49:06;;;;;;;29.80;19.73;;;7.00;99.90;;;;;;5034610;28;20047;-84
2022/03/29 01:51:32;;;;;;;27.15;21.83;;;7.00;99.90;;;;;;5053662;28;20040;-83
2022/03/29 01:54:00;;;;;;;26.80;19.75;;;7.00;99.90;;;;;;5045626;28;20057;-83
2022/03/29 01:56:31;;;;;;;29.38;20.42;;;7.00;99.90;;;;;;5043288;28;20041;-84
2022/03/29 01:59:04;;;;;;;24.92;20.05;;;7.00;99.90;;;;;;5053889;28;20041;-84
2022/03/29 02:01:30;;;;;;;26.38;19.73;;;7.00;99.90;;;;;;5055940;28;20037;-83
2022/03/29 02:03:56;;;;;;;28.38;20.02;;;7.00;99.90;;;;;;5054051;28;20124;-83
2022/03/29 02:06:21;;;;;;;24.45;20.42;;;7.00;99.90;;;;;;5048847;28;20475;-83
2022/03/29 02:08:47;;;;;;;31.60;20.38;;;7.10;99.90;;;;;;5036337;28;20041;-83
2022/03/29 02:11:13;;;;;;;27.88;19.88;;;7.10;99.90;;;;;;5047582;28;20071;-84
2022/03/29 02:13:39;;;;;;;31.13;20.05;;;7.10;99.90;;;;;;5048665;28;20041;-83
2022/03/29 02:16:05;;;;;;;28.27;20.60;;;7.10;99.90;;;;;;5049737;28;20390;-84
2022/03/29 02:18:31;;;;;;;25.00;19.55;;;7.10;99.90;;;;;;5054024;28;20483;-84
2022/03/29 02:20:56;;;;;;;27.02;20.23;;;7.10;99.90;;;;;;5047719;28;20093;-84
2022/03/29 02:23:22;;;;;;;27.70;20.13;;;7.10;99.90;;;;;;5018214;28;20061;-84
2022/03/29 02:25:47;;;;;;;30.02;20.30;;;7.10;99.90;;;;;;5049911;28;20128;-83
2022/03/29 02:28:14;;;;;;;26.27;20.33;;;7.00;99.90;;;;;;5046652;28;20036;-83
2022/03/29 02:30:40;;;;;;;26.85;20.25;;;7.00;99.90;;;;;;5053592;28;20112;-83
2022/03/29 02:33:07;;;;;;;28.13;19.52;;;7.00;99.90;;;;;;5053373;28;20132;-84
2022/03/29 02:35:33;;;;;;;25.73;19.42;;;7.00;99.90;;;;;;5051015;28;20087;-83
2022/03/29 02:38:00;;;;;;;26.80;20.05;;;7.00;99.90;;;;;;5043569;28;20041;-83
2022/03/29 02:40:26;;;;;;;25.92;19.42;;;7.10;99.90;;;;;;5052908;28;20052;-84
2022/03/29 02:42:53;;;;;;;27.58;21.05;;;7.00;99.90;;;;;;5036588;28;20044;-83
2022/03/29 02:45:24;;;;;;;28.83;20.80;;;7.10;99.90;;;;;;5052310;28;20405;-83
2022/03/29 02:47:52;;;;;;;30.27;21.65;;;7.10;99.90;;;;;;5044105;28;20425;-84
2022/03/29 02:50:19;;;;;;;27.65;19.50;;;7.10;99.90;;;;;;5052512;28;20183;-84
2022/03/29 02:52:47;;;;;;;30.15;20.70;;;7.10;99.90;;;;;;5053067;28;20052;-84
2022/03/29 02:55:14;;;;;;;30.23;20.75;;;7.10;99.90;;;;;;5051649;28;20052;-84
2022/03/29 02:57:39;;;;;;;26.83;19.77;;;7.00;99.90;;;;;;5020538;28;20055;-84
2022/03/29 03:00:06;;;;;;;29.27;21.10;;;7.00;99.90;;;;;;5046275;28;20044;-83
2022/03/29 03:02:32;;;;;;;29.10;20.98;;;7.00;99.90;;;;;;5047232;28;20106;-84
2022/03/29 03:04:59;;;;;;;29.60;21.60;;;7.00;99.90;;;;;;5049533;28;20048;-83
2022/03/29 03:07:25;;;;;;;30.83;21.23;;;7.00;99.90;;;;;;5049533;28;20063;-83
2022/03/29 03:09:50;;;;;;;28.67;22.15;;;7.00;99.90;;;;;;5047455;28;20033;-84
2022/03/29 03:12:16;;;;;;;33.03;21.77;;;7.10;99.90;;;;;;5045586;28;20047;-84
2022/03/29 03:14:43;;;;;;;30.05;21.17;;;7.00;99.90;;;;;;5059222;28;20363;-84
2022/03/29 03:17:08;;;;;;;28.92;22.25;;;7.00;99.90;;;;;;5052095;28;20515;-83
2022/03/29 03:19:34;;;;;;;30.88;21.42;;;7.00;99.90;;;;;;5038954;28;20119;-84
2022/03/29 03:22:00;;;;;;;30.73;21.88;;;7.00;99.90;;;;;;5052322;28;20055;-84
2022/03/29 03:24:25;;;;;;;30.48;22.98;;;7.00;99.90;;;;;;5052538;28;20498;-84
2022/03/29 03:26:51;;;;;;;29.63;21.67;;;7.00;99.90;;;;;;5043912;28;20459;-84
2022/03/29 03:29:16;;;;;;;31.60;22.48;;;7.00;99.90;;;;;;5038955;28;20095;-84
2022/03/29 03:31:42;;;;;;;30.70;22.67;;;7.00;99.90;;;;;;5051833;28;20040;-84
2022/03/29 03:34:08;;;;;;;34.58;22.52;;;7.00;99.90;;;;;;5048642;28;20098;-83
2022/03/29 03:36:33;;;;;;;32.35;23.83;;;7.00;99.90;;;;;;5052401;28;20040;-83
2022/03/29 03:38:59;;;;;;;31.42;21.17;;;7.00;99.90;;;;;;5028718;28;20045;-84
2022/03/29 03:41:24;;;;;;;36.63;23.35;;;7.10;99.90;;;;;;5043619;28;20556;-84
2022/03/29 03:43:50;;;;;;;29.75;21.42;;;7.00;99.90;;;;;;5052440;28;20037;-84
2022/03/29 03:46:15;;;;;;;33.03;22.75;;;7.00;99.90;;;;;;5052032;28;20498;-84
2022/03/29 03:48:41;;;;;;;30.65;21.73;;;7.00;99.90;;;;;;5029643;28;20068;-84
2022/03/29 03:51:07;;;;;;;26.88;21.63;;;7.00;99.90;;;;;;5033860;28;20072;-84
2022/03/29 03:53:32;;;;;;;32.33;21.77;;;7.00;99.90;;;;;;5033822;28;20047;-84
2022/03/29 03:55:58;;;;;;;33.88;21.75;;;7.00;99.90;;;;;;5041279;28;20036;-84
2022/03/29 03:58:24;;;;;;;28.45;20.55;;;7.00;99.90;;;;;;5028628;28;20037;-84
2022/03/29 04:00:50;;;;;;;32.60;22.20;;;7.00;99.90;;;;;;5038903;28;20032;-84
2022/03/29 04:03:16;;;;;;;32.38;21.83;;;7.00;99.90;;;;;;5034330;28;20037;-84
2022/03/29 04:05:41;;;;;;;32.08;22.40;;;6.90;99.90;;;;;;5052207;28;20039;-84
2022/03/29 04:08:07;;;;;;;34.63;22.50;;;6.90;99.90;;;;;;5046031;28;20033;-84
2022/03/29 04:10:33;;;;;;;33.70;22.30;;;6.90;99.90;;;;;;5052136;28;20471;-84
2022/03/29 04:13:03;;;;;;;31.17;21.83;;;6.90;99.90;;;;;;5051181;28;20091;-84
2022/03/29 04:15:28;;;;;;;33.47;22.20;;;7.00;99.90;;;;;;5052271;28;20071;-84
2022/03/29 04:17:54;;;;;;;31.63;21.05;;;6.90;99.90;;;;;;5048691;28;20050;-83
2022/03/29 04:20:20;;;;;;;33.65;22.30;;;7.00;99.90;;;;;;5047814;28;20048;-83
2022/03/29 04:22:45;;;;;;;34.08;21.30;;;7.00;99.90;;;;;;5047915;28;20041;-83
2022/03/29 04:25:11;;;;;;;33.53;21.88;;;7.00;99.90;;;;;;5044478;28;20037;-83
2022/03/29 04:27:37;;;;;;;33.83;21.52;;;7.00;99.90;;;;;;5041994;28;20144;-84
2022/03/29 04:30:03;;;;;;;29.13;20.90;;;7.00;99.90;;;;;;5047407;28;20039;-84
2022/03/29 04:32:29;;;;;;;29.25;20.42;;;6.90;99.90;;;;;;5046627;28;20056;-84
2022/03/29 04:34:54;;;;;;;33.40;21.67;;;6.90;99.90;;;;;;5037800;28;20041;-84
2022/03/29 04:37:20;;;;;;;31.83;21.67;;;6.90;99.90;;;;;;5036447;28;20469;-83
2022/03/29 04:39:46;;;;;;;31.60;21.88;;;6.90;99.90;;;;;;5035113;28;20045;-83
2022/03/29 04:42:12;;;;;;;32.67;22.15;;;6.90;99.90;;;;;;5050916;28;20471;-84
2022/03/29 04:44:38;;;;;;;27.13;20.48;;;6.90;99.90;;;;;;5022565;28;20091;-84
2022/03/29 04:47:04;;;;;;;31.30;21.83;;;6.80;99.90;;;;;;5038353;28;20044;-83
2022/03/29 04:49:30;;;;;;;32.35;21.17;;;6.90;99.90;;;;;;5055726;28;20433;-84
2022/03/29 04:51:55;;;;;;;27.38;20.58;;;6.90;99.90;;;;;;5042058;28;20049;-85
2022/03/29 04:54:21;;;;;;;33.97;22.20;;;6.90;99.90;;;;;;5046746;28;20048;-84
2022/03/29 04:56:46;;;;;;;32.70;21.25;;;6.80;99.90;;;;;;5042729;28;20045;-84
2022/03/29 04:59:12;;;;;;;30.40;21.60;;;6.80;99.90;;;;;;5026502;28;20418;-85
2022/03/29 05:01:39;;;;;;;31.15;22.85;;;6.80;99.90;;;;;;5051064;28;20178;-83
2022/03/29 05:04:05;;;;;;;32.70;21.88;;;6.80;99.90;;;;;;5041935;28;20056;-83
2022/03/29 05:06:30;;;;;;;36.25;22.48;;;6.80;99.90;;;;;;5042724;28;20037;-84
2022/03/29 05:08:56;;;;;;;32.38;22.05;;;6.90;99.90;;;;;;5051259;28;20051;-84
2022/03/29 05:11:21;;;;;;;36.30;21.33;;;6.90;99.90;;;;;;5038464;28;20130;-84
2022/03/29 05:13:47;;;;;;;32.40;22.88;;;6.90;99.90;;;;;;5042535;28;20459;-84
2022/03/29 05:16:12;;;;;;;32.17;22.10;;;6.80;99.90;;;;;;5049056;28;20049;-84
2022/03/29 05:18:38;;;;;;;35.28;22.27;;;6.80;99.90;;;;;;5051441;28;20072;-84
2022/03/29 05:21:04;;;;;;;30.67;21.58;;;6.80;99.90;;;;;;5040793;28;20550;-83
2022/03/29 05:23:29;;;;;;;34.33;23.35;;;6.80;99.90;;;;;;5055063;28;20037;-84
2022/03/29 05:25:55;;;;;;;28.83;21.60;;;6.80;99.90;;;;;;5050588;28;20052;-84
2022/03/29 05:28:21;;;;;;;28.92;21.23;;;6.80;99.90;;;;;;5037905;28;20148;-84
2022/03/29 05:30:46;;;;;;;33.20;21.60;;;6.90;99.90;;;;;;5040628;28;20095;-84
2022/03/29 05:33:15;;;;;;;33.90;22.05;;;6.90;99.90;;;;;;5046686;28;20444;-85
2022/03/29 05:35:43;;;;;;;57.40;22.98;;;6.90;99.90;;;;;;5062353;22;20068;-82
2022/03/29 05:38:08;;;;;;;34.15;21.92;;;6.90;99.90;;;;;;5074063;28;20127;-82
2022/03/29 05:40:34;;;;;;;33.58;23.00;;;6.90;99.90;;;;;;5073697;28;20492;-82
2022/03/29 05:42:59;;;;;;;33.83;22.45;;;6.80;99.90;;;;;;5055682;28;20065;-82
2022/03/29 05:45:25;;;;;;;35.40;21.92;;;6.80;99.90;;;;;;5065047;28;20370;-82
2022/03/29 05:50:35;;;;;;;29.02;20.55;;;6.80;99.90;;;;;;5065098;28;20040;-81
2022/03/29 05:53:02;;;;;;;38.00;23.33;;;6.80;99.90;;;;;;5063103;28;20540;-81
2022/03/29 05:55:28;;;;;;;37.03;22.65;;;6.80;99.90;;;;;;5060827;28;20036;-81
2022/03/29 05:57:53;;;;;;;41.08;22.63;;;6.80;99.90;;;;;;5067798;28;20068;-81
2022/03/29 06:00:23;;;;;;;37.00;23.30;;;6.90;99.90;;;;;;5071700;28;20486;-82
2022/03/29 06:02:49;;;;;;;34.95;23.30;;;6.90;99.90;;;;;;5055395;28;20040;-82
2022/03/29 06:05:15;;;;;;;36.90;21.85;;;6.90;99.90;;;;;;5054526;28;20081;-82
2022/03/29 06:07:40;;;;;;;35.97;22.50;;;7.00;99.90;;;;;;5044973;28;20394;-82
2022/03/29 06:10:07;;;;;;;37.95;22.13;;;6.90;99.90;;;;;;5052241;28;20047;-82
2022/03/29 06:12:34;;;;;;;42.28;21.35;;;6.90;99.90;;;;;;5070649;28;20347;-82
2022/03/29 06:15:04;;;;;;;39.80;23.13;;;7.00;99.90;;;;;;5072075;28;20469;-82
2022/03/29 06:17:30;;;;;;;46.83;23.67;;;7.00;99.90;;;;;;5073389;28;20047;-82
2022/03/29 06:19:56;;;;;;;37.85;23.17;;;7.00;99.90;;;;;;5073800;28;20055;-81
2022/03/29 06:22:22;;;;;;;38.47;22.67;;;7.10;99.90;;;;;;5074094;28;20032;-81
2022/03/29 06:24:48;;;;;;;32.97;22.13;;;7.20;99.90;;;;;;5073549;28;20446;-82
2022/03/29 06:27:14;;;;;;;36.75;22.35;;;7.20;99.90;;;;;;5071381;28;20119;-83
2022/03/29 06:29:39;;;;;;;31.27;21.75;;;7.20;99.90;;;;;;5071860;28;20095;-82
2022/03/29 06:32:05;;;;;;;32.60;22.75;;;7.20;99.90;;;;;;5071559;28;20101;-78
2022/03/29 06:34:31;;;;;;;32.97;21.05;;;7.30;99.90;;;;;;5071258;28;20051;-78
2022/03/29 06:36:57;;;;;;;35.03;22.58;;;7.30;99.90;;;;;;5054254;28;20053;-77
2022/03/29 06:39:23;;;;;;;40.78;23.25;;;7.30;99.90;;;;;;5048783;28;20440;-77
2022/03/29 06:41:48;;;;;;;33.28;22.02;;;7.30;99.90;;;;;;5071124;28;20041;-77
2022/03/29 06:44:14;;;;;;;37.60;23.25;;;7.30;99.90;;;;;;5054556;28;20044;-78
2022/03/29 06:46:40;;;;;;;39.42;23.73;;;7.30;99.90;;;;;;5071114;28;20036;-79
2022/03/29 06:49:06;;;;;;;34.88;22.45;;;7.30;99.90;;;;;;5060387;28;20040;-78
2022/03/29 06:51:32;;;;;;;34.20;22.92;;;7.30;99.90;;;;;;5070995;28;20041;-78
2022/03/29 06:53:58;;;;;;;33.63;23.52;;;7.30;99.90;;;;;;5070977;28;20055;-78
2022/03/29 06:56:26;;;;;;;34.05;22.42;;;7.30;99.90;;;;;;5071240;28;20045;-78
2022/03/29 06:58:52;;;;;;;31.10;21.98;;;7.40;99.90;;;;;;5070664;28;20547;-78
2022/03/29 07:01:17;;;;;;;35.08;22.60;;;7.50;99.90;;;;;;5053899;28;20543;-78
2022/03/29 07:03:43;;;;;;;34.05;22.55;;;7.50;99.90;;;;;;5070558;28;20071;-78
2022/03/29 07:06:08;;;;;;;31.75;22.67;;;7.60;99.90;;;;;;5069685;28;20040;-78
2022/03/29 07:08:34;;;;;;;31.23;22.25;;;7.50;99.90;;;;;;5063284;28;20755;-78
2022/03/29 07:11:16;;;;;;;38.08;23.38;;;7.50;99.90;;;;;;5067954;28;20533;-78
2022/03/29 07:13:44;;;;;;;31.67;22.42;;;7.50;99.90;;;;;;5070317;28;20035;-77
2022/03/29 07:16:10;;;;;;;36.15;23.10;;;7.60;99.90;;;;;;5053797;28;20032;-78
2022/03/29 07:18:36;;;;;;;34.30;23.60;;;7.60;99.90;;;;;;5070658;28;20051;-78
2022/03/29 07:21:02;;;;;;;34.13;22.70;;;7.60;99.90;;;;;;5070460;28;20044;-78
2022/03/29 07:23:29;;;;;;;32.70;21.48;;;7.60;99.90;;;;;;5057306;28;20036;-78
2022/03/29 07:25:56;;;;;;;36.95;23.67;;;7.70;99.90;;;;;;5070465;28;20032;-77
2022/03/29 07:28:23;;;;;;;37.65;22.33;;;7.70;99.90;;;;;;5053640;28;20037;-78
2022/03/29 07:30:49;;;;;;;37.55;22.23;;;7.70;99.90;;;;;;5070509;28;20044;-78
2022/03/29 07:33:17;;;;;;;38.20;23.60;;;7.70;99.90;;;;;;5067459;28;20560;-78
2022/03/29 07:35:44;;;;;;;31.73;22.15;;;7.80;99.90;;;;;;5070338;28;20114;-78
2022/03/29 07:38:10;;;;;;;36.50;23.10;;;7.70;99.90;;;;;;5070218;28;20052;-78
2022/03/29 07:40:38;;;;;;;36.75;23.25;;;7.70;99.90;;;;;;5070549;28;20041;-78
2022/03/29 07:43:05;;;;;;;38.60;23.15;;;7.70;99.90;;;;;;5070009;28;20757;-78
2022/03/29 07:45:31;;;;;;;31.77;23.55;;;7.70;99.90;;;;;;5069975;28;20497;-78
2022/03/29 07:47:57;;;;;;;32.42;23.20;;;7.60;99.90;;;;;;5048426;28;20045;-78
2022/03/29 07:50:24;;;;;;;36.90;24.65;;;7.70;99.90;;;;;;5049100;28;20454;-78
2022/03/29 07:52:50;;;;;;;35.58;22.73;;;7.80;99.90;;;;;;5040906;28;20044;-78
2022/03/29 07:55:16;;;;;;;38.05;24.40;;;7.90;99.90;;;;;;5070000;28;20043;-78
2022/03/29 07:57:43;;;;;;;39.22;25.52;;;7.90;99.90;;;;;;5059334;28;20044;-78
2022/03/29 08:02:56;;;;;;;36.72;23.45;;;7.90;99.90;;;;;;5069718;28;20526;-78
2022/03/29 08:05:22;;;;;;;35.45;22.90;;;8.00;99.90;;;;;;5070115;28;20363;-78
2022/03/29 08:07:48;;;;;;;32.95;23.05;;;8.00;99.90;;;;;;5067413;28;20049;-78
2022/03/29 08:10:14;;;;;;;38.20;23.55;;;8.10;99.90;;;;;;5069926;28;20147;-78
2022/03/29 08:12:40;;;;;;;37.83;23.63;;;8.10;99.90;;;;;;5068458;28;20045;-78
2022/03/29 08:15:08;;;;;;;39.85;24.17;;;8.10;99.90;;;;;;5053327;28;20036;-78
2022/03/29 08:17:34;;;;;;;41.35;23.38;;;8.00;99.90;;;;;;5069818;28;20075;-78
2022/03/29 08:19:59;;;;;;;37.70;23.55;;;7.90;99.90;;;;;;5053034;28;20695;-78
2022/03/29 08:22:25;;;;;;;33.78;21.80;;;8.00;99.90;;;;;;5073090;28;20049;-78
2022/03/29 08:24:51;;;;;;;29.67;22.23;;;8.10;99.90;;;;;;5074029;28;20040;-78
2022/03/29 08:27:17;;;;;;;32.33;21.50;;;8.20;99.90;;;;;;5074031;28;20036;-77
2022/03/29 08:29:43;;;;;;;35.92;22.58;;;8.30;99.90;;;;;;5073852;28;20062;-77
2022/03/29 08:32:09;;;;;;;39.47;24.08;;;8.40;99.90;;;;;;5072304;28;20052;-78
2022/03/29 08:34:34;;;;;;;39.85;24.83;;;8.50;99.90;;;;;;5045027;28;20063;-77
2022/03/29 08:37:00;;;;;;;36.08;23.83;;;8.50;99.90;;;;;;5073713;28;20135;-78
2022/03/29 08:39:26;;;;;;;33.47;22.98;;;8.60;99.90;;;;;;5073702;28;20040;-78
2022/03/29 08:42:12;;;;;;;36.38;22.20;;;8.80;99.90;;;;;;5073394;28;20072;-78
2022/03/29 08:44:40;;;;;;;33.47;21.60;;;8.90;99.90;;;;;;5073486;28;20047;-78
2022/03/29 08:47:10;;;;;;;31.38;22.20;;;9.10;99.90;;;;;;5073891;28;20090;-78
2022/03/29 08:49:36;;;;;;;36.97;23.50;;;9.10;99.90;;;;;;5065564;28;20041;-77
2022/03/29 08:52:06;;;;;;;32.00;22.17;;;9.30;99.90;;;;;;5073245;28;20036;-77
2022/03/29 08:54:32;;;;;;;30.88;21.05;;;9.40;99.90;;;;;;5073367;28;20405;-77
2022/03/29 08:56:59;;;;;;;38.00;23.48;;;9.50;99.90;;;;;;5056678;28;20044;-77
2022/03/29 08:59:26;;;;;;;31.85;22.77;;;9.60;99.90;;;;;;5073728;28;20040;-78
2022/03/29 09:01:52;;;;;;;36.38;22.23;;;9.70;99.90;;;;;;5072921;28;20086;-77
2022/03/29 09:04:22;;;;;;;33.15;22.77;;;9.70;99.90;;;;;;5055823;28;20533;-78
2022/03/29 09:06:50;;;;;;;30.65;21.25;;;9.30;99.90;;;;;;5073029;28;20120;-78
2022/03/29 09:09:23;;;;;;;33.58;21.23;;;9.50;99.90;;;;;;5063359;28;20041;-77
2022/03/29 09:11:50;;;;;;;30.83;22.27;;;9.40;99.90;;;;;;5070700;28;20045;-77
2022/03/29 09:14:18;;;;;;;32.53;22.10;;;9.50;99.90;;;;;;5072030;28;20144;-78
2022/03/29 09:16:44;;;;;;;32.92;22.95;;;9.40;99.90;;;;;;5072962;28;20536;-77
2022/03/29 09:19:10;;;;;;;33.70;22.75;;;9.40;99.90;;;;;;5056472;28;20076;-77
2022/03/29 09:21:44;;;;;;;31.48;22.35;;;9.40;99.90;;;;;;5055931;28;20076;-78
2022/03/29 09:24:15;;;;;;;32.10;22.65;;;9.30;99.90;;;;;;5065535;28;20384;-78
2022/03/29 09:26:49;;;;;;;31.65;21.52;;;9.50;99.90;;;;;;5038168;28;20041;-78
2022/03/29 09:29:20;;;;;;;40.42;24.85;;;9.60;99.90;;;;;;5069877;28;20028;-78
2022/03/29 09:31:49;;;;;;;33.30;23.77;;;9.40;99.90;;;;;;5064736;28;20047;-79
2022/03/29 09:34:23;;;;;;;35.58;22.42;;;9.40;99.90;;;;;;5049244;28;20040;-77
2022/03/29 09:36:52;;;;;;;43.03;29.90;;;9.60;99.90;;;;;;5061466;28;20145;-77
2022/03/29 09:39:37;;;;;;;37.40;21.48;;;9.70;99.90;;;;;;5070170;28;20089;-77
2022/03/29 09:42:12;;;;;;;33.97;20.02;;;9.80;99.90;;;;;;5071772;28;20040;-77
2022/03/29 09:44:44;;;;;;;32.33;22.48;;;10.00;99.90;;;;;;5071701;28;20088;-77
2022/03/29 09:47:13;;;;;;;36.08;22.08;;;9.60;99.90;;;;;;5054828;28;20062;-77
2022/03/29 09:50:02;;;;;;;36.42;22.80;;;9.90;99.90;;;;;;5068684;28;20764;-77
2022/03/29 09:52:29;;;;;;;29.60;20.65;;;10.00;99.90;;;;;;5059244;28;20124;-77
2022/03/29 09:55:13;;;;;;;30.65;21.58;;;10.00;99.90;;;;;;5063503;28;20041;-77
2022/03/29 09:57:49;;;;;;;35.75;21.65;;;10.20;99.90;;;;;;5046302;28;20086;-77
2022/03/29 10:00:18;;;;;;;29.85;18.92;;;10.30;99.90;;;;;;5061893;28;20044;-77
2022/03/29 10:02:47;;;;;;;31.77;20.40;;;10.50;99.90;;;;;;5062966;28;20049;-77
2022/03/29 10:05:16;;;;;;;28.52;18.77;;;10.50;99.90;;;;;;5067157;28;20037;-77
2022/03/29 10:07:47;;;;;;;29.13;18.20;;;10.60;99.90;;;;;;5064324;28;20875;-77
2022/03/29 10:10:13;;;;;;;30.27;16.48;;;10.60;99.90;;;;;;5063248;28;20036;-77
2022/03/29 10:12:39;;;;;;;23.98;16.85;;;10.80;99.90;;;;;;5050577;28;20376;-77
2022/03/29 10:15:07;;;;;;;26.23;16.85;;;10.90;99.90;;;;;;5069725;28;20091;-77
2022/03/29 10:17:33;;;;;;;24.38;17.08;;;10.90;99.90;;;;;;5062328;28;20075;-77
2022/03/29 10:20:00;;;;;;;29.13;17.38;;;11.10;99.90;;;;;;5071806;28;20513;-77
2022/03/29 10:22:25;;;;;;;22.38;16.05;;;11.40;99.90;;;;;;5061529;28;20041;-77
2022/03/29 10:24:51;;;;;;;24.27;16.85;;;11.70;99.90;;;;;;5068066;28;20040;-77
2022/03/29 10:27:19;;;;;;;25.88;16.52;;;11.10;99.90;;;;;;5073246;28;20033;-78
2022/03/29 10:29:45;;;;;;;29.13;15.25;;;11.10;99.90;;;;;;5065911;28;20529;-78
2022/03/29 10:32:11;;;;;;;24.17;14.85;;;11.30;99.90;;;;;;5052491;28;20036;-77
2022/03/29 10:34:40;;;;;;;23.55;16.08;;;11.50;99.90;;;;;;5063474;28;20060;-78
2022/03/29 10:37:10;;;;;;;25.13;15.20;;;11.40;99.90;;;;;;5062254;28;20497;-78
2022/03/29 10:39:42;;;;;;;27.77;15.52;;;11.70;99.90;;;;;;5068164;28;20044;-78
2022/03/29 10:42:27;;;;;;;23.30;14.77;;;11.50;99.90;;;;;;5067079;28;20360;-77
2022/03/29 10:45:25;;;;;;;25.98;14.68;;;11.30;99.90;;;;;;5067094;28;20086;-77
2022/03/29 10:47:53;;;;;;;21.83;15.18;;;11.40;99.90;;;;;;5064911;28;20035;-77
2022/03/29 10:50:19;;;;;;;25.60;14.23;;;11.30;99.90;;;;;;5062992;28;20077;-77
2022/03/29 10:52:47;;;;;;;22.98;14.82;;;11.30;99.90;;;;;;5048033;28;20082;-77
2022/03/29 10:55:27;;;;;;;24.50;13.65;;;11.00;99.90;;;;;;5063672;28;20083;-77
2022/03/29 10:58:09;;;;;;;22.17;13.18;;;10.90;99.90;;;;;;5061851;28;20036;-77
2022/03/29 11:00:41;;;;;;;23.77;13.82;;;11.10;99.90;;;;;;5069142;28;20040;-77
2022/03/29 11:03:09;;;;;;;27.20;14.60;;;11.30;99.90;;;;;;5063100;28;20512;-77
2022/03/29 11:06:07;;;;;;;23.98;13.30;;;11.30;99.90;;;;;;5042712;28;20041;-77
2022/03/29 11:08:41;;;;;;;23.40;13.32;;;11.30;99.90;;;;;;5061759;28;20047;-77
2022/03/29 11:11:28;;;;;;;24.00;12.73;;;11.20;99.90;;;;;;5037891;28;20123;-78
2022/03/29 11:13:53;;;;;;;22.13;11.98;;;11.20;99.90;;;;;;5062605;28;20465;-78
2022/03/29 11:16:28;;;;;;;22.20;11.23;;;11.50;99.90;;;;;;5067080;28;20060;-78
2022/03/29 11:18:55;;;;;;;21.65;11.55;;;11.50;99.90;;;;;;5047010;28;20033;-78
2022/03/29 11:21:39;;;;;;;24.63;10.55;;;11.70;99.90;;;;;;5062358;28;20045;-77
2022/03/29 11:24:07;;;;;;;20.95;12.48;;;11.90;99.90;;;;;;5053785;28;20047;-77
2022/03/29 11:26:34;;;;;;;39.40;22.38;;;11.70;99.90;;;;;;5063562;28;20094;-77
2022/03/29 11:29:02;;;;;;;40.08;23.67;;;11.70;99.90;;;;;;5042783;28;20036;-77
2022/03/29 11:31:38;;;;;;;21.92;11.98;;;11.90;99.90;;;;;;5047531;28;20045;-78
2022/03/29 11:34:05;;;;;;;23.55;11.63;;;12.00;99.90;;;;;;5058117;28;20711;-77
2022/03/29 11:36:35;;;;;;;22.63;11.70;;;12.00;99.90;;;;;;5066333;28;20513;-77
2022/03/29 11:39:00;;;;;;;20.13;10.45;;;12.30;99.90;;;;;;5052447;28;20032;-77
2022/03/29 11:41:32;;;;;;;19.05;11.65;;;12.20;99.90;;;;;;5040254;28;20041;-78
2022/03/29 11:44:06;;;;;;;18.77;10.30;;;11.60;99.90;;;;;;5067991;28;20111;-78
2022/03/29 11:46:44;;;;;;;19.30;10.23;;;12.20;99.90;;;;;;5052609;28;20082;-77
2022/03/29 11:49:10;;;;;;;19.83;10.88;;;11.90;99.90;;;;;;5062415;28;20047;-77
2022/03/29 11:51:35;;;;;;;20.27;11.00;;;12.20;99.90;;;;;;5062517;28;20037;-77
2022/03/29 11:54:01;;;;;;;21.90;10.45;;;12.20;99.90;;;;;;5052376;28;20132;-78
2022/03/29 11:56:27;;;;;;;18.88;11.02;;;12.40;99.90;;;;;;5051635;28;20135;-77
2022/03/29 11:58:54;;;;;;;22.25;11.38;;;12.40;99.90;;;;;;5050291;28;20044;-77
2022/03/29 12:01:31;;;;;;;16.92;10.80;;;12.60;99.90;;;;;;5050791;28;20040;-77
2022/03/29 12:04:03;;;;;;;21.75;10.93;;;12.20;99.70;;;;;;5065132;28;20447;-77
2022/03/29 12:06:33;;;;;;;25.38;10.32;;;12.00;99.90;;;;;;5065112;28;20040;-77
2022/03/29 12:09:00;;;;;;;19.77;10.90;;;12.20;99.90;;;;;;5063084;28;20375;-77
2022/03/29 12:11:30;;;;;;;19.48;10.60;;;12.10;99.90;;;;;;5061485;28;20131;-77
2022/03/29 12:14:02;;;;;;;22.33;10.75;;;12.10;99.90;;;;;;5066112;28;20501;-77
2022/03/29 12:16:28;;;;;;;17.60;9.25;;;12.30;99.90;;;;;;5065160;28;20040;-77
2022/03/29 12:18:55;;;;;;;19.92;10.02;;;12.50;99.90;;;;;;5066430;28;20029;-77
2022/03/29 12:21:22;;;;;;;18.83;11.00;;;12.50;99.90;;;;;;5064555;28;20037;-77
2022/03/29 12:23:56;;;;;;;15.98;11.25;;;11.70;99.90;;;;;;5066994;28;20051;-77
2022/03/29 12:26:22;;;;;;;17.20;10.45;;;11.40;99.90;;;;;;5066207;28;20082;-77
2022/03/29 12:28:49;;;;;;;16.10;10.75;;;11.90;99.90;;;;;;5065900;28;20115;-77
2022/03/29 12:31:16;;;;;;;20.13;9.43;;;11.80;99.90;;;;;;5037909;28;20041;-77
2022/03/29 12:33:43;;;;;;;17.65;10.38;;;12.10;99.90;;;;;;5062072;28;20036;-76
2022/03/29 12:36:14;;;;;;;17.83;9.20;;;12.30;99.90;;;;;;5055980;28;20106;-77
2022/03/29 12:38:48;;;;;;;17.15;9.52;;;12.50;99.90;;;;;;5068013;28;20044;-77
2022/03/29 12:41:31;;;;;;;20.17;9.80;;;11.70;99.90;;;;;;5066172;28;20044;-77
2022/03/29 12:43:56;;;;;;;17.55;7.63;;;11.90;99.90;;;;;;5064062;28;20114;-77
2022/03/29 12:46:24;;;;;;;17.48;8.25;;;12.20;99.90;;;;;;5064848;28;20032;-76